Cruzeiro Do Canal — CSVG — position and weather

sailwx.info

Track history (hours):
 
Tides and Currents Weather Stations Pressure Air Temp Water Temp Dewpoint Dewpoint Depression Visibility Wind Speed Wind Dir Waves Ship Positions

Cruzeiro Do Canal

Last reported at 2018-Mar-19 13:34 UTC. Time now 2018-Apr-25 12:47 UTC.
Position N 38°32' W 028°37'.
Warning: this ship's position is 36 days out of date.

Length 32 m; draft 2.3 m.

Type: Passenger vessel. MMSI: 204701250.

Date/timePositionNaut miles runAvg speedWind from/ knotsBaromVisibWave heightAir tempDewpointWater temp
2018-Mar-19 13:34N 38°32' W 028°37'0 0.0
2018-Mar-19 13:30N 38°32' W 028°37'9 0.2
2018-Mar-17 20:24N 38°35' W 028°26'711.6
2018-Mar-17 19:50N 38°38' W 028°18'1 0.7
2018-Mar-17 18:25N 38°39' W 028°18'711.7
2018-Mar-17 17:48N 38°36' W 028°26'1 0.3
2018-Mar-17 14:47N 38°35' W 028°26'7 2.9
2018-Mar-17 12:23N 38°39' W 028°18'711.9
2018-Mar-17 11:48N 38°36' W 028°26'9 0.2
2018-Mar-15 13:03N 38°32' W 028°37'0 0.2
2018-Mar-15 13:00N 38°32' W 028°37'4 8.5
2018-Mar-15 12:30N 38°32' W 028°32'2 4.2
2018-Mar-15 12:00N 38°32' W 028°34'2 4.5
2018-Mar-15 11:30N 38°32' W 028°37'0 0.0
2018-Mar-14 13:02N 38°32' W 028°37'0 0.0
2018-Mar-14 13:00N 38°32' W 028°37'4 8.5
2018-Mar-14 12:30N 38°32' W 028°32'2 4.2
2018-Mar-14 12:00N 38°32' W 028°35'2 4.4
2018-Mar-14 11:30N 38°32' W 028°37'  
Track history (hours):
 
Tides and Currents Weather Stations Pressure Air Temp Water Temp Dewpoint Dewpoint Depression Visibility Wind Speed Wind Dir Waves Ship Positions

Cruzeiro Do Canal

Last reported at 2018-Mar-19 13:34 UTC. Time now 2018-Apr-25 12:47 UTC.
Position N 38°32' W 028°37'.
Warning: this ship's position is 36 days out of date.

Length 32 m; draft 2.3 m.

Type: Passenger vessel. MMSI: 204701250.

Date/timePositionNaut miles runAvg speedWind from/ knotsBaromVisibWave heightAir tempDewpointWater temp
2018-Mar-19 13:34N 38°32' W 028°37'0 0.0
2018-Mar-19 13:30N 38°32' W 028°37'9 0.2
2018-Mar-17 20:24N 38°35' W 028°26'711.6
2018-Mar-17 19:50N 38°38' W 028°18'1 0.7
2018-Mar-17 18:25N 38°39' W 028°18'711.7
2018-Mar-17 17:48N 38°36' W 028°26'1 0.3
2018-Mar-17 14:47N 38°35' W 028°26'7 2.9
2018-Mar-17 12:23N 38°39' W 028°18'711.9
2018-Mar-17 11:48N 38°36' W 028°26'9 0.2
2018-Mar-15 13:03N 38°32' W 028°37'0 0.2
2018-Mar-15 13:00N 38°32' W 028°37'4 8.5
2018-Mar-15 12:30N 38°32' W 028°32'2 4.2
2018-Mar-15 12:00N 38°32' W 028°34'2 4.5
2018-Mar-15 11:30N 38°32' W 028°37'0 0.0
2018-Mar-14 13:02N 38°32' W 028°37'0 0.0
2018-Mar-14 13:00N 38°32' W 028°37'4 8.5
2018-Mar-14 12:30N 38°32' W 028°32'2 4.2
2018-Mar-14 12:00N 38°32' W 028°35'2 4.4
2018-Mar-14 11:30N 38°32' W 028°37'  

Dump ship's entire track history